Have a Safe July 4th! 

Flight Track Log - Related Links

Times and Time Zones

All times are in EDT time to prevent confusion due to time zone crossing. See the SWA540 flight status page for this flight to view local times or setup timezone preferences in your user account.

Time Position Orientation Groundspeed Altitude Reporting Facility
EDT Latitude Longitude Course Direction KTS MPH feet Rate Location/Type
Wed 01:30:38 PM 34.0575 -117.7100 270° West 229 264 5,000  Level Los Angeles Center
Wed 01:31:40 PM 34.0842 -117.7931 291° West 271 312 7,000 2,661 Climbing Los Angeles Center
Wed 01:32:42 PM 34.1350 -117.8692 309° West 286 329 10,500 3,360 Climbing Los Angeles Center
Wed 01:33:45 PM 34.1928 -117.9536 310° West 323 372 14,000 3,888 Climbing Los Angeles Center
Wed 01:34:47 PM 34.2689 -118.0669 309° West 361 415 18,600 3,968 Climbing Los Angeles Center
Wed 01:35:49 PM 34.3367 -118.1667 309° West 382 440 22,200 3,290 Climbing Los Angeles Center
Wed 01:36:51 PM 34.4064 -118.2703 309° West 397 457 25,400 2,855 Climbing Los Angeles Center
Wed 01:37:53 PM 34.4914 -118.3658 317° Northwest 417 480 28,100 2,371 Climbing Los Angeles Center
Wed 01:38:55 PM 34.5833 -118.4600 320° Northwest 431 496 30,300 2,226 Climbing Los Angeles Center
Wed 01:39:57 PM 34.6767 -118.5589 319° Northwest 446 513 32,700 2,544 Climbing Los Angeles Center
Wed 01:41:00 PM 34.7889 -118.6764 319° Northwest 446 513 35,600 2,304 Climbing Los Angeles Center
Wed 01:42:02 PM 34.8772 -118.7775 317° Northwest 448 516 37,500 1,059 Climbing Los Angeles Center
Wed 01:43:16 PM 34.9578 -118.9311 303° West 439 505 38,000 221 Climbing Los Angeles Center
Wed 01:44:18 PM 35.0203 -119.0544 302° West 432 497 38,000  Level Los Angeles Center
Wed 01:45:21 PM 35.0831 -119.1789 302° West 433 498 38,000  Level Los Angeles Center
Wed 01:46:23 PM 35.1458 -119.3022 302° West 431 496 38,000  Level Los Angeles Center
Wed 01:47:25 PM 35.2203 -119.4503 302° West 426 490 38,000  Level Los Angeles Center
Wed 01:48:27 PM 35.2833 -119.5758 302° West 433 498 38,000  Level Los Angeles Center
Wed 01:49:29 PM 35.3481 -119.7078 301° West 449 517 38,000  Level Los Angeles Center
Wed 01:50:31 PM 35.4136 -119.8386 302° West 451 519 38,000  Level Los Angeles Center
Wed 01:51:34 PM 35.4783 -119.9700 301° West 454 522 38,000  Level Los Angeles Center
Wed 01:52:36 PM 35.5558 -120.1292 301° West 457 526 38,000  Level Los Angeles Center
Wed 01:53:47 PM 35.6333 -120.2872 301° West 458 527 38,000  Level Oakland Center
Wed 01:54:48 PM 35.6972 -120.4197 301° West 458 527 38,000  Level Oakland Center
Wed 01:55:50 PM 35.7792 -120.5383 310° West 459 528 38,000  Level Oakland Center
Wed 01:56:51 PM 35.8678 -120.6514 314° West 460 529 38,000  Level Oakland Center
Wed 01:57:52 PM 35.9556 -120.7658 313° West 460 529 38,000 -488 Level Oakland Center
Wed 01:58:54 PM 36.0431 -120.8789 314° West 458 527 37,000 -2,244 Descending Oakland Center
Wed 01:59:55 PM 36.1486 -121.0158 314° West 461 531 33,400 -3,934 Descending Oakland Center
Wed 02:00:56 PM 36.2403 -121.1300 315° West 469 540 29,000 -4,000 Descending Oakland Center
Wed 02:01:58 PM 36.3261 -121.2483 312° West 465 535 25,200 -3,512 Descending Oakland Center
Wed 02:02:59 PM 36.4097 -121.3606 313° West 446 513 21,800 -3,197 Descending Oakland Center
Wed 02:04:00 PM 36.4972 -121.4564 319° Northwest 424 488 18,700 -3,756 Descending Oakland Center
Wed 02:05:02 PM 36.6064 -121.4944 344° North 406 467 14,100 -3,756 Descending Oakland Center
Wed 02:06:03 PM 36.7117 -121.5372 342° North 398 458 11,000 -2,000 Descending Oakland Center
Wed 02:07:05 PM 36.8072 -121.5733 343° North 363 418 10,000 -1,073 Descending Oakland Center
Wed 02:08:06 PM 36.9000 -121.6133 341° North 314 361 8,800 -1,328 Descending Oakland Center
Wed 02:09:07 PM 36.9767 -121.6431 343° North 295 339 7,300 -1,512 Descending Oakland Center
Wed 02:10:09 PM 37.0511 -121.6714 343° North 285 328 5,700 -1,171 Descending Oakland Center
Wed 02:11:10 PM 37.1258 -121.7011 342° North 283 326 4,900 -537 Descending Oakland Center
Wed 02:12:12 PM 37.1914 -121.7369 336° Northwest 271 312 4,600 -927 Descending Oakland Center
Wed 02:13:13 PM 37.2392 -121.7897 319° Northwest 248 285 3,000 -1,180 Descending Oakland Center
Wed 02:14:14 PM 37.2733 -121.8353 313° West 214 246 2,200 -780 Descending Oakland Center
Wed 02:15:16 PM 37.3044 -121.8700 318° Northwest 178 205 1,400 -780 Descending Oakland Center
Wed 02:16:17 PM 37.3378 -121.9039 321° Northwest 145 167 600 13,951 Descending Oakland Center
Wed 02:17:19 PM 37.3644 -121.9339 318° Northwest 134 154 30,000 28,452 Climbing Oakland Center
Wed 02:19:00 PM 37.3627 -121.9291 North  Level Estimated

Login

Don't have an account? Register now (free) for customized features, flight alerts, and more!